Time;durP1;ratioP1;P1;durP2;ratioP2;P2;SDS_P1;SDS_P2;PMS_P1;PMS_P2;Temp;Humidity;BMP_temperature;BMP_pressure;BME280_temperature;BME280_humidity;BME280_pressure;Samples;Min_cycle;Max_cycle;Signal;HPM_P1;HPM_P2
2021/05/15 00:02:13;;;;;;;;;;;;;;;12.18;100.00;98453.55;1667164;86;20148;-71
2021/05/15 00:04:40;;;;;;;;;;;;;;;12.20;100.00;98451.92;1667087;86;20152;-72
2021/05/15 00:07:06;;;;;;;;;;;;;;;12.19;100.00;98457.82;1667140;86;20148;-71
2021/05/15 00:09:34;;;;;;;;;;;;;;;12.18;100.00;98448.16;1666990;86;21867;-71
2021/05/15 00:12:01;;;;;;;;;;;;;;;12.16;100.00;98448.99;1667200;86;20168;-72
2021/05/15 00:14:31;;;;;;;;;;;;;;;12.16;100.00;98451.69;1667234;86;20265;-72
2021/05/15 00:17:01;;;;;;;;;;;;;;;12.16;100.00;98448.20;1667179;86;20213;-73
2021/05/15 00:19:28;;;;;;;;;;;;;;;12.15;100.00;98448.75;1667342;86;20244;-73
2021/05/15 00:21:55;;;;;;;;;;;;;;;12.16;100.00;98448.99;1667218;86;21092;-73
2021/05/15 00:24:23;;;;;;;;;;;;;;;12.20;100.00;98456.75;1667241;86;20168;-74
2021/05/15 00:26:50;;;;;;;;;;;;;;;12.21;100.00;98450.27;1667356;86;20196;-73
2021/05/15 00:29:16;;;;;;;;;;;;;;;12.23;100.00;98456.16;1667235;86;20176;-73
2021/05/15 00:31:44;;;;;;;;;;;;;;;12.26;100.00;98448.59;1667341;86;20132;-72
2021/05/15 00:34:11;;;;;;;;;;;;;;;12.27;100.00;98447.50;1667240;86;20542;-72
2021/05/15 00:36:38;;;;;;;;;;;;;;;12.26;100.00;98447.25;1667323;86;20593;-73
2021/05/15 00:39:06;;;;;;;;;;;;;;;12.26;100.00;98448.05;1667332;86;20188;-73
2021/05/15 00:41:32;;;;;;;;;;;;;;;12.27;100.00;98446.15;1667157;86;20148;-72
2021/05/15 00:46:52;;;;;;;;;;;;;;;12.33;100.00;98452.52;1667191;86;20991;-73
2021/05/15 00:49:19;;;;;;;;;;;;;;;12.34;100.00;98451.97;1667184;86;20144;-73
2021/05/15 00:51:45;;;;;;;;;;;;;;;12.36;100.00;98451.13;1667119;86;20232;-73
2021/05/15 00:54:13;;;;;;;;;;;;;;;12.36;100.00;98443.06;1667294;86;20167;-72
2021/05/15 00:56:41;;;;;;;;;;;;;;;12.36;100.00;98442.51;1667109;86;20573;-72
2021/05/15 00:59:08;;;;;;;;;;;;;;;12.37;100.00;98445.99;1667101;86;21120;-73
2021/05/15 01:01:35;;;;;;;;;;;;;;;12.35;100.00;98443.61;1667165;86;20160;-72
2021/05/15 01:04:04;;;;;;;;;;;;;;;12.36;100.00;98443.06;1667280;86;20144;-72
2021/05/15 01:06:30;;;;;;;;;;;;;;;12.35;100.00;98446.30;1667136;86;20188;-72
2021/05/15 01:08:57;;;;;;;;;;;;;;;12.36;100.00;98444.41;1667338;86;20172;-72
2021/05/15 01:11:24;;;;;;;;;;;;;;;12.38;100.00;98446.27;1667263;86;21129;-72
2021/05/15 01:13:59;;;;;;;;;;;;;;;12.38;100.00;98438.98;1667123;86;20156;-72
2021/05/15 01:16:26;;;;;;;;;;;;;;;12.37;100.00;98440.61;1667171;86;20180;-72
2021/05/15 01:18:53;;;;;;;;;;;;;;;12.36;100.00;98437.68;1667129;86;20172;-72
2021/05/15 01:21:20;;;;;;;;;;;;;;;12.35;100.00;98446.86;1667229;86;20200;-73
2021/05/15 01:23:47;;;;;;;;;;;;;;;12.34;100.00;98447.93;1667285;86;21109;-72
2021/05/15 01:26:18;;;;;;;;;;;;;;;12.33;100.00;98452.52;1667090;86;20188;-72
2021/05/15 01:28:47;;;;;;;;;;;;;;;12.33;100.00;98445.00;1667142;86;20578;-72
2021/05/15 01:31:14;;;;;;;;;;;;;;;12.32;100.00;98448.24;1667155;86;20197;-71
2021/05/15 01:33:41;;;;;;;;;;;;;;;12.33;100.00;98449.03;1667275;86;20196;-74
2021/05/15 01:36:08;;;;;;;;;;;;;;;12.33;100.00;98445.00;1667176;86;21109;-73
2021/05/15 01:38:35;;;;;;;;;;;;;;;12.34;100.00;98442.55;1667063;86;20152;-71
2021/05/15 01:41:03;;;;;;;;;;;;;;;12.35;100.00;98440.92;1667185;86;20581;-72
2021/05/15 01:43:31;;;;;;;;;;;;;;;12.32;100.00;98443.38;1667148;86;20179;-72
2021/05/15 01:45:58;;;;;;;;;;;;;;;12.32;100.00;98439.34;1667148;86;20586;-72
2021/05/15 01:48:25;;;;;;;;;;;;;;;12.28;100.00;98446.42;1667091;86;21113;-72
2021/05/15 01:51:07;;;;;;;;;;;;;;;12.25;100.00;98448.33;1667064;86;20180;-72
2021/05/15 01:53:37;;;;;;;;;;;;;;;12.21;100.00;98451.61;1667134;86;20522;-72
2021/05/15 01:56:05;;;;;;;;;;;;;;;12.18;100.00;98452.75;1667108;86;20201;-73
2021/05/15 01:58:33;;;;;;;;;;;;;;;12.16;100.00;98454.92;1667219;86;20177;-71
2021/05/15 02:00:59;;;;;;;;;;;;;;;12.11;100.00;98449.62;1667326;86;21077;-71
2021/05/15 02:03:26;;;;;;;;;;;;;;;12.06;100.00;98456.42;1667117;86;20180;-72
2021/05/15 02:05:53;;;;;;;;;;;;;;;12.00;100.00;98453.80;1667104;86;20597;-71
2021/05/15 02:08:22;;;;;;;;;;;;;;;11.95;100.00;98449.80;1667177;86;20164;-70
2021/05/15 02:10:49;;;;;;;;;;;;;;;11.92;100.00;98453.08;1667296;86;20574;-72
2021/05/15 02:13:18;;;;;;;;;;;;;;;11.88;100.00;98453.42;1667174;86;21488;-71
2021/05/15 02:15:47;;;;;;;;;;;;;;;11.86;100.00;98452.88;1666918;86;20192;-71
2021/05/15 02:18:15;;;;;;;;;;;;;;;11.83;100.00;98460.70;1667071;86;20173;-71
2021/05/15 02:20:42;;;;;;;;;;;;;;;11.79;100.00;98459.94;1667272;86;20354;-72
2021/05/15 02:23:11;;;;;;;;;;;;;;;11.74;100.00;98460.56;1667025;86;20172;-71
2021/05/15 02:25:41;;;;;;;;;;;;;;;11.71;100.00;98459.77;1667040;86;21835;-71
2021/05/15 02:28:08;;;;;;;;;;;;;;;11.68;100.00;98462.48;1666380;85;20582;-72
2021/05/15 02:30:34;;;;;;;;;;;;;;;11.69;100.00;98461.97;1667049;86;20545;-71
2021/05/15 02:33:01;;;;;;;;;;;;;;;11.70;100.00;98459.52;1667334;86;20148;-72
2021/05/15 02:35:28;;;;;;;;;;;;;;;11.75;100.00;98471.00;1667101;86;20630;-72
2021/05/15 02:37:55;;;;;;;;;;;;;;;11.77;100.00;98470.17;1667186;86;21144;-72
2021/05/15 02:40:22;;;;;;;;;;;;;;;11.78;100.00;98467.77;1667114;86;20237;-72
2021/05/15 02:42:50;;;;;;;;;;;;;;;11.80;100.00;98469.59;1667292;86;20192;-72
2021/05/15 02:45:19;;;;;;;;;;;;;;;11.80;100.00;98474.18;1667175;86;20482;-72
2021/05/15 02:47:47;;;;;;;;;;;;;;;11.84;100.00;98473.88;1667245;86;20164;-72
2021/05/15 02:50:15;;;;;;;;;;;;;;;11.88;100.00;98477.63;1667088;86;21760;-73
2021/05/15 02:52:44;;;;;;;;;;;;;;;11.89;100.00;98476.52;1667057;86;20184;-73
2021/05/15 02:55:16;;;;;;;;;;;;;;;11.94;100.00;98480.48;1667121;86;20172;-73
2021/05/15 02:57:43;;;;;;;;;;;;;;;11.97;100.00;98481.25;1667105;86;20594;-73
2021/05/15 03:00:13;;;;;;;;;;;;;;;12.01;100.00;98489.55;1667138;86;20202;-72
2021/05/15 03:02:39;;;;;;;;;;;;;;;12.02;100.00;98484.42;1667166;86;21071;-71
2021/05/15 03:05:07;;;;;;;;;;;;;;;12.06;100.00;98488.14;1667114;86;20594;-71
2021/05/15 03:07:34;;;;;;;;;;;;;;;12.10;100.00;98489.17;1667133;86;20534;-71
2021/05/15 03:10:00;;;;;;;;;;;;;;;12.16;100.00;98491.23;1666953;86;20590;-71
2021/05/15 03:12:27;;;;;;;;;;;;;;;12.18;100.00;98493.10;1667200;86;20541;-72
2021/05/15 03:14:56;;;;;;;;;;;;;;;12.22;100.00;98496.79;1667038;86;20152;-70
2021/05/15 03:17:23;;;;;;;;;;;;;;;12.23;100.00;98497.06;1667085;86;20156;-71
2021/05/15 03:19:52;;;;;;;;;;;;;;;12.29;100.00;98495.89;1667073;86;20519;-72
2021/05/15 03:22:21;;;;;;;;;;;;;;;12.33;100.00;98504.19;1667178;86;20201;-72
2021/05/15 03:24:49;;;;;;;;;;;;;;;12.36;100.00;98501.70;1667119;86;20199;-72
2021/05/15 03:27:16;;;;;;;;;;;;;;;12.38;100.00;98505.47;1667228;86;21085;-72
2021/05/15 03:29:43;;;;;;;;;;;;;;;12.42;100.00;98511.84;1667032;86;20168;-73
2021/05/15 03:32:25;;;;;;;;;;;;;;;12.44;100.00;98511.02;1667170;86;20169;-71
2021/05/15 03:34:52;;;;;;;;;;;;;;;12.47;100.00;98512.32;1667113;86;20200;-71
2021/05/15 03:37:19;;;;;;;;;;;;;;;12.51;100.00;98506.62;1667070;86;20586;-73
2021/05/15 03:39:46;;;;;;;;;;;;;;;12.52;100.00;98511.72;1667073;86;21065;-70
2021/05/15 03:42:13;;;;;;;;;;;;;;;12.54;100.00;98514.10;1667187;86;20172;-71
2021/05/15 03:44:41;;;;;;;;;;;;;;;12.55;100.00;98517.86;1667082;86;20189;-72
2021/05/15 03:47:07;;;;;;;;;;;;;;;12.60;100.00;98519.68;1667220;86;20248;-72
2021/05/15 03:49:34;;;;;;;;;;;;;;;12.61;100.00;98521.27;1667298;86;20168;-71
2021/05/15 03:52:00;;;;;;;;;;;;;;;12.64;100.00;98522.84;1640318;86;22105;-71
2021/05/15 03:54:28;;;;;;;;;;;;;;;12.69;100.00;98529.22;1667065;86;20228;-71
2021/05/15 03:56:55;;;;;;;;;;;;;;;12.70;100.00;98527.59;1667264;86;20535;-71
2021/05/15 03:59:23;;;;;;;;;;;;;;;12.72;100.00;98530.80;1667468;86;20239;-72
2021/05/15 04:01:50;;;;;;;;;;;;;;;12.72;100.00;98528.11;1667391;86;20188;-72
2021/05/15 04:04:17;;;;;;;;;;;;;;;12.71;100.00;98537.27;1667316;86;21119;-72
2021/05/15 04:06:44;;;;;;;;;;;;;;;12.73;100.00;98541.02;1667340;86;20187;-71
2021/05/15 04:09:11;;;;;;;;;;;;;;;12.77;100.00;98543.39;1667119;86;20546;-72
2021/05/15 04:11:39;;;;;;;;;;;;;;;12.78;100.00;98546.33;1667329;86;20304;-71
2021/05/15 04:15:03;;;;;;;;;;;;;;;12.75;100.00;98549.61;1667226;86;20547;-71
2021/05/15 04:19:17;;;;;;;;;;;;;;;12.82;100.00;98551.39;1607077;89;20284;-71
2021/05/15 04:21:44;;;;;;;;;;;;;;;12.79;100.00;98547.39;1605696;89;20169;-70
2021/05/15 04:24:12;;;;;;;;;;;;;;;12.83;100.00;98557.02;1605765;89;20177;-71
2021/05/15 04:26:38;;;;;;;;;;;;;;;12.85;100.00;98563.71;1585006;89;20157;-71
2021/05/15 04:29:05;;;;;;;;;;;;;;;12.88;100.00;98560.98;1540122;91;21358;-70
2021/05/15 04:31:32;;;;;;;;;;;;;;;12.93;100.00;98558.20;1605600;89;20165;-71
2021/05/15 04:34:00;;;;;;;;;;;;;;;12.96;100.00;98566.24;1605585;89;20574;-71
2021/05/15 04:36:27;;;;;;;;;;;;;;;12.97;100.00;98563.27;1604374;89;20206;-72
2021/05/15 04:39:15;;;;;;;;;;;;;;;;;;;;;
2021/05/15 04:41:38;;;;;;;;;;;;;;;13.02;100.00;98564.53;1533965;93;21139;-72
2021/05/15 04:46:57;;;;;;;;;;;;;;;12.98;100.00;98567.55;1526811;93;20195;-72
2021/05/15 04:49:34;;;;;;;;;;;;;;;13.02;100.00;98568.57;1536710;93;20210;-72
2021/05/15 04:52:00;;;;;;;;;;;;;;;13.00;100.00;98570.75;1535999;93;20618;-72
2021/05/15 04:54:29;;;;;;;;;;;;;;;12.96;100.00;98572.45;1521925;92;22570;-73
2021/05/15 04:56:58;;;;;;;;;;;;;;;12.98;100.00;98577.53;1585919;90;20204;-72
2021/05/15 04:59:24;;;;;;;;;;;;;;;12.96;100.00;98576.49;1578712;91;20175;-72
2021/05/15 05:01:58;;;;;;;;;;;;;;;12.93;100.00;98577.05;1578414;91;20291;-71
2021/05/15 05:04:36;;;;;;;;;;;;;;;12.93;100.00;98578.41;1574033;89;20299;-73
2021/05/15 05:07:03;;;;;;;;;;;;;;;12.88;100.00;98579.83;1578520;91;21126;-72
2021/05/15 05:09:30;;;;;;;;;;;;;;;12.91;100.00;98582.48;1578685;91;20581;-71
2021/05/15 05:11:59;;;;;;;;;;;;;;;12.92;100.00;98592.18;1578356;89;20246;-72
2021/05/15 05:14:28;;;;;;;;;;;;;;;12.92;100.00;98589.48;1578534;91;20285;-72
2021/05/15 05:16:56;;;;;;;;;;;;;;;12.88;100.00;98593.30;1578638;91;20204;-71
2021/05/15 05:19:23;;;;;;;;;;;;;;;12.90;100.00;98598.40;1615850;87;21641;-70
2021/05/15 05:21:51;;;;;;;;;;;;;;;12.89;100.00;98593.56;1666735;86;20552;-70
2021/05/15 05:24:20;;;;;;;;;;;;;;;12.87;100.00;98591.70;1666499;86;20172;-70
2021/05/15 05:26:49;;;;;;;;;;;;;;;12.88;100.00;98602.72;1639748;86;20169;-70
2021/05/15 05:29:16;;;;;;;;;;;;;;;12.89;100.00;98600.30;1666624;86;20215;-70
2021/05/15 05:31:46;;;;;;;;;;;;;;;12.90;100.00;98601.89;1666743;86;21068;-70
2021/05/15 05:34:13;;;;;;;;;;;;;;;12.92;100.00;98606.44;1666158;86;20672;-70
2021/05/15 05:36:43;;;;;;;;;;;;;;;12.93;100.00;98601.30;1639652;86;20185;-72
2021/05/15 05:39:16;;;;;;;;;;;;;;;12.90;100.00;98605.92;1612966;87;20174;-72
2021/05/15 05:41:47;;;;;;;;;;;;;;;12.95;100.00;98607.75;1638141;87;20221;-71
2021/05/15 05:44:17;;;;;;;;;;;;;;;12.98;100.00;98603.91;1666508;86;21675;-72
2021/05/15 05:46:45;;;;;;;;;;;;;;;13.01;100.00;98611.98;1666666;86;20172;-71
2021/05/15 05:49:16;;;;;;;;;;;;;;;13.04;100.00;98612.19;1666384;86;20566;-70
2021/05/15 05:51:44;;;;;;;;;;;;;;;13.02;100.00;98614.91;1666695;86;20184;-71
2021/05/15 05:54:14;;;;;;;;;;;;;;;13.01;100.00;98619.51;1666688;86;20193;-69
2021/05/15 05:56:41;;;;;;;;;;;;;;;13.07;100.00;98620.23;1666526;86;21891;-71
2021/05/15 05:59:09;;;;;;;;;;;;;;;13.11;100.00;98625.30;1685925;85;20383;-71
2021/05/15 06:01:36;;;;;;;;;;;;;;;13.20;100.00;98632.14;1664656;86;20332;-71
2021/05/15 06:04:31;;;;;;;;;;;;;;;13.23;100.00;98628.34;1730010;81;20292;-70
2021/05/15 06:06:47;;;;;;;;;;;;;;;13.33;100.00;98640.88;1722723;83;20570;-70
2021/05/15 06:09:18;;;;;;;;;;;;;;;13.39;100.00;98635.64;1744060;82;21080;-71
2021/05/15 06:11:48;;;;;;;;;;;;;;;13.44;100.00;98637.46;1762554;81;20166;-71
2021/05/15 06:14:15;;;;;;;;;;;;;;;13.46;100.00;98639.32;1762713;81;20164;-72
2021/05/15 06:16:49;;;;;;;;;;;;;;;13.48;100.00;98643.31;1762886;81;20531;-71
2021/05/15 06:26:02;;;;;;;;;;;;;;;13.58;100.00;98650.44;1672396;85;20630;-70
2021/05/15 06:28:29;;;;;;;;;;;;;;;13.65;100.00;98655.45;1692453;84;20201;-70
2021/05/15 06:30:55;;;;;;;;;;;;;;;13.66;100.00;98654.35;1649073;87;20177;-70
2021/05/15 06:33:22;;;;;;;;;;;;;;;13.69;100.00;98657.80;1649337;87;20287;-69
2021/05/15 06:35:49;;;;;;;;;;;;;;;13.77;100.00;98664.41;1637427;87;22217;-70
2021/05/15 06:38:23;;;;;;;;;;;;;;;13.77;100.00;98671.14;1643012;86;21693;-71
2021/05/15 06:40:54;;;;;;;;;;;;;;;13.71;100.00;98669.09;1666132;85;20252;-68
2021/05/15 06:43:29;;;;;;;;;;;;;;;13.76;100.00;98678.44;1666274;86;20240;-70
2021/05/15 06:45:57;;;;;;;;;;;;;;;13.67;100.00;98678.34;1666312;86;20160;-70
2021/05/15 06:48:25;;;;;;;;;;;;;;;13.85;100.00;98683.97;1665834;86;20365;-70
2021/05/15 06:50:54;;;;;;;;;;;;;;;13.96;100.00;98685.38;1666077;86;20188;-69
2021/05/15 06:53:28;;;;;;;;;;;;;;;14.09;100.00;98695.41;1665057;86;20168;-70
2021/05/15 06:55:55;;;;;;;;;;;;;;;14.18;100.00;98690.11;1667731;83;20304;-70
2021/05/15 06:58:40;;;;;;;;;;;;;;;14.32;100.00;98698.23;1728879;83;20168;-71
2021/05/15 07:01:09;;;;;;;;;;;;;;;14.42;100.00;98695.88;1699260;83;20561;-69
2021/05/15 07:03:38;;;;;;;;;;;;;;;14.51;100.00;98694.88;1729220;83;20592;-70
2021/05/15 07:06:05;;;;;;;;;;;;;;;14.67;100.00;98703.49;1728855;83;20231;-72
2021/05/15 07:08:33;;;;;;;;;;;;;;;15.03;100.00;98700.61;1728939;83;20199;-68
2021/05/15 07:11:00;;;;;;;;;;;;;;;15.43;100.00;98696.99;1729430;83;20192;-71
2021/05/15 07:13:30;;;;;;;;;;;;;;;15.59;100.00;98695.27;1729082;83;21105;-70
2021/05/15 07:16:13;;;;;;;;;;;;;;;;;;;;;
2021/05/15 07:18:44;;;;;;;;;;;;;;;15.68;100.00;98708.84;1699510;83;20616;-71
2021/05/15 07:21:12;;;;;;;;;;;;;;;15.86;100.00;98711.39;1729190;83;20263;-72
2021/05/15 07:23:40;;;;;;;;;;;;;;;15.79;100.00;98711.58;1729382;83;20243;-71
2021/05/15 07:26:10;;;;;;;;;;;;;;;15.85;100.00;98715.22;1729463;83;21120;-70
2021/05/15 07:28:39;;;;;;;;;;;;;;;16.17;100.00;98715.20;1729544;83;20456;-73
2021/05/15 07:31:07;;;;;;;;;;;;;;;16.34;100.00;98721.27;1729759;83;20192;-71
2021/05/15 07:33:34;;;;;;;;;;;;;;;16.35;100.00;98710.69;1729644;83;20219;-72
2021/05/15 07:36:04;;;;;;;;;;;;;;;16.53;100.00;98721.03;1729499;83;20570;-71
2021/05/15 07:38:31;;;;;;;;;;;;;;;16.75;100.00;98714.73;1727730;83;21094;-71
2021/05/15 07:40:58;;;;;;;;;;;;;;;17.06;100.00;98724.95;1729489;83;20342;-71
2021/05/15 07:43:26;;;;;;;;;;;;;;;17.27;100.00;98729.22;1729477;83;20565;-71
2021/05/15 07:45:55;;;;;;;;;;;;;;;17.40;100.00;98731.53;1729603;83;20207;-71
2021/05/15 07:48:29;;;;;;;;;;;;;;;17.70;100.00;98729.75;1729422;83;20207;-70
2021/05/15 07:50:51;;;;;;;;;;;;;;;17.71;100.00;98723.77;1728155;83;21785;-71
2021/05/15 07:53:19;;;;;;;;;;;;;;;17.57;100.00;98732.09;1729574;83;20228;-72
2021/05/15 07:55:45;;;;;;;;;;;;;;;17.45;100.00;98737.36;1729676;83;20156;-71
2021/05/15 07:58:12;;;;;;;;;;;;;;;17.56;100.00;98732.66;1700476;83;20200;-71
2021/05/15 08:00:39;;;;;;;;;;;;;;;17.62;100.00;98729.77;1729818;83;20667;-72
2021/05/15 08:03:06;;;;;;;;;;;;;;;17.43;100.00;98732.80;1729641;83;21514;-73
2021/05/15 08:05:32;;;;;;;;;;;;;;;17.68;100.00;98734.70;1729648;83;20573;-73
2021/05/15 08:08:01;;;;;;;;;;;;;;;17.84;100.00;98733.69;1729959;83;20255;-73
2021/05/15 08:10:28;;;;;;;;;;;;;;;17.89;100.00;98743.02;1729621;83;20203;-71
2021/05/15 08:12:56;;;;;;;;;;;;;;;17.73;100.00;98741.88;1729743;83;20603;-73
2021/05/15 08:15:24;;;;;;;;;;;;;;;18.03;100.00;98742.03;1729944;83;21675;-72
2021/05/15 08:17:51;;;;;;;;;;;;;;;18.10;100.00;98747.77;1729652;83;20200;-72
2021/05/15 08:20:25;;;;;;;;;;;;;;;18.26;100.00;98745.34;1729637;83;20172;-74
2021/05/15 08:22:57;;;;;;;;;;;;;;;18.38;100.00;98744.89;1729374;83;20228;-73
2021/05/15 08:25:29;;;;;;;;;;;;;;;18.32;100.00;98742.67;1726809;83;20284;-73
2021/05/15 08:28:06;;;;;;;;;;;;;;;18.98;100.00;98743.61;1729441;83;21622;-72
2021/05/15 08:30:32;;;;;;;;;;;;;;;19.04;100.00;98745.81;1729226;83;20172;-70
2021/05/15 08:33:06;;;;;;;;;;;;;;;18.90;100.00;98734.38;1727499;83;20251;-73
2021/05/15 08:36:03;;;;;;;;;;;;;;;19.12;100.00;98749.59;1727805;83;20164;-75
2021/05/15 08:38:30;;;;;;;;;;;;;;;19.13;99.48;98731.35;1729707;83;20183;-73
2021/05/15 08:40:58;;;;;;;;;;;;;;;19.44;100.00;98738.56;1729489;83;21206;-73
2021/05/15 08:43:27;;;;;;;;;;;;;;;19.59;97.05;98741.81;1728972;83;20227;-75
2021/05/15 08:45:57;;;;;;;;;;;;;;;20.00;94.83;98747.00;1729818;83;20771;-72
2021/05/15 08:48:24;;;;;;;;;;;;;;;20.08;91.08;98741.45;1729363;83;20303;-74
2021/05/15 08:50:51;;;;;;;;;;;;;;;20.31;89.15;98736.41;1729611;83;20617;-75
2021/05/15 08:53:23;;;;;;;;;;;;;;;20.09;89.37;98736.83;1699777;83;20212;-75
2021/05/15 08:55:52;;;;;;;;;;;;;;;19.48;86.58;98745.52;1728980;83;20192;-71
2021/05/15 08:58:20;;;;;;;;;;;;;;;19.63;89.16;98750.34;1728893;83;20195;-74
2021/05/15 09:00:49;;;;;;;;;;;;;;;20.03;81.67;98749.05;1729591;83;20180;-72
2021/05/15 09:03:23;;;;;;;;;;;;;;;20.32;81.08;98759.00;1698483;83;20231;-73
2021/05/15 09:05:53;;;;;;;;;;;;;;;20.69;80.73;98746.80;1728823;83;21361;-73
2021/05/15 09:08:56;;;;;;;;;;;;;;;21.08;76.45;98744.52;1728110;83;20242;-74
2021/05/15 09:11:37;;;;;;;;;;;;;;;21.21;73.76;98743.34;1707757;83;20156;-74
2021/05/15 09:17:43;;;;;;;;;;;;;;;20.67;72.16;98744.41;1726755;83;20275;-75
2021/05/15 09:23:40;;;;;;;;;;;;;;;20.51;68.85;98747.00;1610138;88;20321;-76
2021/05/15 09:26:17;;;;;;;;;;;;;;;20.80;69.12;98736.23;1614783;87;20154;-74
2021/05/15 09:29:09;;;;;;;;;;;;;;;21.08;68.67;98737.13;1613977;88;20251;-75
2021/05/15 09:31:46;;;;;;;;;;;;;;;20.88;68.59;98735.34;1615973;88;20246;-74
2021/05/15 09:34:18;;;;;;;;;;;;;;;20.65;68.55;98737.70;1614748;88;20193;-76
2021/05/15 09:36:53;;;;;;;;;;;;;;;20.79;67.35;98737.38;1624746;87;20201;-74
2021/05/15 09:39:40;;;;;;;;;;;;;;;20.61;68.36;98733.52;1627285;87;20166;-73
2021/05/15 09:42:08;;;;;;;;;;;;;;;20.57;69.81;98733.95;1613186;87;20204;-72
2021/05/15 09:44:40;;;;;;;;;;;;;;;20.08;69.38;98742.81;1640468;87;20284;-73
2021/05/15 09:47:15;;;;;;;;;;;;;;;20.28;68.79;98749.33;1642829;87;21105;-75
2021/05/15 09:49:41;;;;;;;;;;;;;;;19.69;69.99;98734.05;1642611;87;20204;-74
2021/05/15 09:52:08;;;;;;;;;;;;;;;19.88;73.03;98733.56;1642905;87;20195;-74
2021/05/15 09:54:44;;;;;;;;;;;;;;;19.86;72.70;98736.39;1642195;86;20209;-73
2021/05/15 09:57:12;;;;;;;;;;;;;;;19.81;73.71;98736.61;1615661;88;20242;-73
2021/05/15 09:59:42;;;;;;;;;;;;;;;19.95;71.79;98740.41;1635139;86;21798;-74
2021/05/15 10:02:12;;;;;;;;;;;;;;;20.16;67.26;98743.85;1638250;87;20178;-70
2021/05/15 10:04:42;;;;;;;;;;;;;;;20.53;65.04;98734.40;1671700;85;20260;-69
2021/05/15 10:07:17;;;;;;;;;;;;;;;20.86;63.92;98727.48;1666412;86;20220;-72
2021/05/15 10:09:44;;;;;;;;;;;;;;;21.17;64.92;98732.34;1637735;87;20242;-72
2021/05/15 10:12:11;;;;;;;;;;;;;;;21.02;64.89;98734.41;1638071;87;21107;-71
2021/05/15 10:14:37;;;;;;;;;;;;;;;20.83;65.35;98739.66;1664433;83;20271;-75
2021/05/15 10:17:06;;;;;;;;;;;;;;;20.78;66.42;98728.98;1759126;81;20272;-71
2021/05/15 10:19:33;;;;;;;;;;;;;;;20.80;66.45;98738.95;1729761;83;20199;-72
2021/05/15 10:22:01;;;;;;;;;;;;;;;20.90;66.20;98730.34;1743365;82;20277;-73
2021/05/15 10:24:30;;;;;;;;;;;;;;;21.36;65.29;98744.56;1741001;81;20991;-73
2021/05/15 10:27:04;;;;;;;;;;;;;;;21.36;64.22;98744.02;1732731;83;20167;-73
2021/05/15 10:29:49;;;;;;;;;;;;;;;21.05;63.23;98745.20;1732769;83;20235;-72
2021/05/15 10:32:25;;;;;;;;;;;;;;;21.01;61.12;98741.56;1734643;81;20184;-72
2021/05/15 10:35:04;;;;;;;;;;;;;;;20.96;59.56;98737.14;1738274;81;20276;-72
2021/05/15 10:37:33;;;;;;;;;;;;;;;20.34;62.95;98747.20;1727470;83;21711;-71
2021/05/15 10:40:00;;;;;;;;;;;;;;;20.33;64.03;98740.96;1728072;82;20165;-72
2021/05/15 10:42:32;;;;;;;;;;;;;;;20.32;61.97;98742.08;1725386;83;20217;-72
2021/05/15 10:45:01;;;;;;;;;;;;;;;19.90;63.75;98746.86;1758706;81;20575;-72
2021/05/15 10:47:28;;;;;;;;;;;;;;;20.09;64.53;98745.78;1759130;81;20184;-72
2021/05/15 10:50:14;;;;;;;;;;;;;;;20.07;63.38;98741.80;1760075;81;21111;-74
2021/05/15 10:52:45;;;;;;;;;;;;;;;19.80;62.32;98730.38;1759374;81;20208;-74
2021/05/15 10:55:12;;;;;;;;;;;;;;;19.95;60.41;98736.33;1760192;81;20129;-74
2021/05/15 10:57:39;;;;;;;;;;;;;;;19.88;60.38;98734.92;1760151;81;20228;-73
2021/05/15 11:00:07;;;;;;;;;;;;;;;19.98;60.01;98738.37;1759704;81;20161;-73
2021/05/15 11:02:38;;;;;;;;;;;;;;;20.28;58.84;98740.36;1759370;81;21577;-71
2021/05/15 11:05:14;;;;;;;;;;;;;;;20.73;56.34;98731.36;1759658;81;20160;-73
2021/05/15 11:07:42;;;;;;;;;;;;;;;21.40;54.24;98734.01;1759466;81;20169;-74
2021/05/15 11:10:16;;;;;;;;;;;;;;;21.42;51.87;98740.50;1759659;81;20277;-72
2021/05/15 11:12:45;;;;;;;;;;;;;;;21.43;54.17;98736.61;1759554;81;20602;-72
2021/05/15 11:15:16;;;;;;;;;;;;;;;21.58;53.55;98714.61;1758859;81;21671;-71
2021/05/15 11:17:43;;;;;;;;;;;;;;;21.34;53.18;98730.48;1759604;81;20345;-73
2021/05/15 11:20:18;;;;;;;;;;;;;;;20.92;56.07;98734.31;1759811;81;20209;-72
2021/05/15 11:22:48;;;;;;;;;;;;;;;20.58;55.08;98732.02;1759223;81;20192;-73
2021/05/15 11:25:24;;;;;;;;;;;;;;;20.60;56.43;98742.02;1759766;81;20583;-73
2021/05/15 11:27:58;;;;;;;;;;;;;;;20.56;56.57;98726.93;1746845;81;21086;-77
2021/05/15 11:30:33;;;;;;;;;;;;;;;20.76;58.01;98723.28;1737923;81;20267;-77
2021/05/15 11:33:01;;;;;;;;;;;;;;;20.90;57.52;98720.79;1729947;81;20139;-75
2021/05/15 11:35:31;;;;;;;;;;;;;;;21.08;55.12;98725.42;1758779;81;20767;-75
2021/05/15 11:38:04;;;;;;;;;;;;;;;21.08;56.09;98713.93;1753027;81;20180;-74
2021/05/15 11:40:37;;;;;;;;;;;;;;;21.22;55.64;98721.76;1755309;81;21107;-75
2021/05/15 11:43:09;;;;;;;;;;;;;;;21.40;53.65;98723.66;1739816;81;20261;-74
2021/05/15 11:45:36;;;;;;;;;;;;;;;21.04;48.62;98719.05;1759872;81;20165;-71
2021/05/15 11:48:22;;;;;;;;;;;;;;;21.01;48.99;98724.62;1759253;81;20587;-71
2021/05/15 11:51:10;;;;;;;;;;;;;;;20.95;50.06;98721.34;1754323;81;20555;-69
2021/05/15 11:53:51;;;;;;;;;;;;;;;20.66;49.06;98716.14;1729593;83;21105;-73
2021/05/15 11:56:26;;;;;;;;;;;;;;;20.90;50.06;98724.88;1711666;83;20147;-71
2021/05/15 11:58:59;;;;;;;;;;;;;;;20.90;51.34;98718.85;1744088;82;20150;-69
2021/05/15 12:01:30;;;;;;;;;;;;;;;20.65;48.19;98715.35;1750560;81;20163;-70
2021/05/15 12:04:22;;;;;;;;;;;;;;;20.53;48.60;98717.47;1729638;83;20184;-72
2021/05/15 12:06:49;;;;;;;;;;;;;;;20.30;49.52;98729.92;1714469;83;21099;-70
2021/05/15 12:09:17;;;;;;;;;;;;;;;20.34;50.08;98726.19;1732687;83;20215;-71
2021/05/15 12:11:50;;;;;;;;;;;;;;;20.23;50.07;98725.02;1705947;83;20222;-71
2021/05/15 12:14:18;;;;;;;;;;;;;;;20.03;50.99;98723.17;1727764;83;20232;-72
2021/05/15 12:16:46;;;;;;;;;;;;;;;20.00;52.31;98732.81;1740260;82;20229;-68
2021/05/15 12:19:30;;;;;;;;;;;;;;;19.90;53.44;98726.44;1745097;81;21422;-69
2021/05/15 12:22:08;;;;;;;;;;;;;;;20.02;55.86;98732.48;1732479;83;20167;-73
2021/05/15 12:24:47;;;;;;;;;;;;;;;20.26;57.37;98727.09;1761355;81;20217;-72
2021/05/15 12:27:14;;;;;;;;;;;;;;;19.80;60.65;98722.20;1745984;81;20613;-72
2021/05/15 12:29:42;;;;;;;;;;;;;;;19.72;61.38;98727.17;1732668;83;20132;-71
2021/05/15 12:32:10;;;;;;;;;;;;;;;19.93;63.51;98730.41;1756597;81;21105;-71
2021/05/15 12:34:37;;;;;;;;;;;;;;;19.91;63.94;98730.16;1759257;81;20240;-72
2021/05/15 12:37:16;;;;;;;;;;;;;;;19.80;65.92;98733.09;1729257;81;20243;-73
2021/05/15 12:39:43;;;;;;;;;;;;;;;19.67;65.71;98727.32;1714790;83;20204;-71
2021/05/15 12:42:14;;;;;;;;;;;;;;;19.46;66.68;98730.08;1757506;81;20208;-72
2021/05/15 12:44:46;;;;;;;;;;;;;;;19.51;68.04;98731.81;1753832;81;20188;-73
2021/05/15 12:47:23;;;;;;;;;;;;;;;19.63;68.96;98738.67;1728070;83;20166;-72
2021/05/15 12:49:49;;;;;;;;;;;;;;;20.19;66.01;98733.66;1757945;81;20205;-72
2021/05/15 12:52:22;;;;;;;;;;;;;;;19.96;65.74;98737.91;1759451;81;20555;-73
2021/05/15 12:54:52;;;;;;;;;;;;;;;19.84;66.55;98739.47;1758307;81;20193;-72
2021/05/15 12:57:25;;;;;;;;;;;;;;;19.36;65.80;98740.80;1753850;81;21628;-72
2021/05/15 12:59:54;;;;;;;;;;;;;;;19.23;66.80;98742.66;1759709;81;20153;-74
2021/05/15 13:02:22;;;;;;;;;;;;;;;19.14;64.36;98744.63;1759154;81;20236;-72
2021/05/15 13:05:01;;;;;;;;;;;;;;;19.06;63.82;98740.84;1759764;81;20542;-71
2021/05/15 13:07:33;;;;;;;;;;;;;;;18.99;63.96;98756.88;1759489;81;20544;-72
2021/05/15 13:10:06;;;;;;;;;;;;;;;18.96;63.52;98748.03;1759671;81;20563;-71
2021/05/15 13:12:33;;;;;;;;;;;;;;;19.15;63.25;98750.86;1759497;81;20173;-71
2021/05/15 13:15:02;;;;;;;;;;;;;;;19.12;62.45;98759.12;1759613;81;20554;-73
2021/05/15 13:17:30;;;;;;;;;;;;;;;19.17;63.84;98762.22;1759465;81;20236;-73
2021/05/15 13:19:56;;;;;;;;;;;;;;;19.11;65.81;98758.08;1759797;81;20165;-71